首页
METAR-TAF:

METAR-TAF

机场 :

韩·那丁国际机场

巴淡島, 印度尼西亚

纬度: 01-07-15N, 经度: 104-07-07E, 海拔: 38米

当前天气观测

该预报发布于35分钟前的12:00 UTC
风速6节,风向西
温度 26°C
湿度 89%
气压 1011 hPa
能见度10公里或以上
少量云层高于1400英尺

METAR: WIDD 171200Z 28006KT 9999 FEW014 26/24 Q1011 NOSIG

时间: 19:35 (12:35 UTC)

预报

该预报发布于1小时和35分钟前的11:00 UTC
预报有效从17日的 12点(UTC)到 18日的 12点(UTC)
风速7节,风向西
能见度10公里或以上
散云层高于1400英尺

TAF: WIDD 171100Z 1712/1812 26007KT 9999 SCT014

超过4000个机场的气象观测和天气预报(METAR&TAF报告)。

可查询的气象台以黄色和红色小点在地图上表示。

将鼠标移到小点上方,可查看气象台名称。

然后点击查看天气观测和预报。

如需切换地图:点击带黑十字的绿色按钮放大地图;点击带横线的绿色按钮缩小地图;或者点击绿色箭头查看邻近地区的地图。


METAR-TAF: